Time;durP1;ratioP1;P1;durP2;ratioP2;P2;SDS_P1;SDS_P2;PMS_P1;PMS_P2;Temp;Humidity;BMP_temperature;BMP_pressure;BME280_temperature;BME280_humidity;BME280_pressure;Samples;Min_cycle;Max_cycle;Signal;HPM_P1;HPM_P2
2023/03/24 00:01:02;;;;;;;10.77;7.07;;;;;;;8.69;71.44;101406.16;4938460;28;20034;-80
2023/03/24 00:03:29;;;;;;;14.07;8.55;;;;;;;8.73;71.08;101406.00;4970334;28;20031;-80
2023/03/24 00:06:00;;;;;;;13.77;8.93;;;;;;;8.69;70.80;101394.09;4954459;28;20070;-80
2023/03/24 00:08:29;;;;;;;15.68;8.23;;;;;;;8.72;71.17;101394.00;4954508;28;20125;-80
2023/03/24 00:10:57;;;;;;;12.93;7.65;;;;;;;8.70;71.08;101394.94;4970392;28;20415;-80
2023/03/24 00:13:23;;;;;;;14.80;8.23;;;;;;;8.64;70.68;101370.16;4954589;28;20031;-80
2023/03/24 00:15:48;;;;;;;12.30;6.90;;;;;;;8.42;70.73;101341.56;4970204;28;20488;-80
2023/03/24 00:18:14;;;;;;;11.27;7.57;;;;;;;8.71;70.56;101384.59;4986486;28;20030;-80
2023/03/24 00:20:41;;;;;;;14.20;7.65;;;;;;;8.68;71.04;101401.88;4954334;28;20054;-80
2023/03/24 00:23:06;;;;;;;13.38;7.25;;;;;;;8.52;70.90;101376.53;4953931;28;20031;-80
2023/03/24 00:25:35;;;;;;;17.15;7.53;;;;;;;8.45;70.82;101363.84;4938221;28;20460;-80
2023/03/24 00:28:01;;;;;;;11.98;7.72;;;;;;;8.51;70.98;101385.16;4971067;28;20030;-80
2023/03/24 00:30:27;;;;;;;10.02;6.70;;;;;;;8.46;71.23;101381.03;4938569;28;20022;-80
2023/03/24 00:32:53;;;;;;;12.38;7.30;;;;;;;8.45;71.15;101375.00;4954350;28;20035;-80
2023/03/24 00:35:18;;;;;;;11.88;7.68;;;;;;;8.49;71.53;101397.25;4970125;28;20061;-80
2023/03/24 00:37:44;;;;;;;10.32;6.88;;;;;;;8.47;71.77;101393.03;4937924;28;20031;-80
2023/03/24 00:40:12;;;;;;;9.15;6.22;;;;;;;8.40;71.68;101388.91;4938351;28;20023;-79
2023/03/24 00:42:39;;;;;;;15.63;6.45;;;;;;;8.30;71.54;101371.09;4954589;28;20035;-79
2023/03/24 00:45:05;;;;;;;10.93;5.75;;;;;;;8.28;71.88;101385.75;4970165;28;20069;-79
2023/03/24 00:47:35;;;;;;;10.23;5.95;;;;;;;8.25;71.10;101352.31;4970059;28;20170;-79
2023/03/24 00:50:03;;;;;;;9.57;7.55;;;;;;;8.15;71.75;101350.03;4969860;28;20041;-80
2023/03/24 00:52:32;;;;;;;9.52;5.88;;;;;;;8.28;71.66;101367.72;4957235;28;20035;-80
2023/03/24 00:55:00;;;;;;;13.43;8.30;;;;;;;8.33;71.22;101376.16;4973255;28;20030;-80
2023/03/24 00:57:28;;;;;;;15.57;8.32;;;;;;;8.26;71.78;101359.19;4973537;28;20034;-80
2023/03/24 00:59:54;;;;;;;12.77;7.57;;;;;;;8.22;72.68;101359.31;4941885;28;20460;-80
2023/03/24 01:02:23;;;;;;;12.50;8.20;;;;;;;8.05;72.67;101333.97;4989597;28;21337;-80
2023/03/24 01:04:56;;;;;;;7.70;6.28;;;;;;;8.20;72.58;101364.50;4973395;28;20038;-80
2023/03/24 01:07:22;;;;;;;11.52;5.97;;;;;;;8.22;72.20;101362.72;4957054;28;20031;-80
2023/03/24 01:09:56;;;;;;;11.85;7.38;;;;;;;8.19;72.34;101356.81;4956930;28;20070;-80
2023/03/24 01:12:30;;;;;;;12.90;7.38;;;;;;;8.22;72.16;101357.56;4958380;28;20061;-80
2023/03/24 01:15:00;;;;;;;11.40;7.10;;;;;;;8.00;72.23;101335.84;4957075;28;20034;-80
2023/03/24 01:17:25;;;;;;;8.52;6.35;;;;;;;8.15;71.92;101339.72;4957416;28;20022;-79
2023/03/24 01:19:54;;;;;;;9.50;7.25;;;;;;;8.15;71.75;101356.03;4941082;28;20039;-80
2023/03/24 01:22:20;;;;;;;11.93;7.03;;;;;;;8.07;71.26;101339.97;4940468;28;20037;-80
2023/03/24 01:24:49;;;;;;;11.35;6.00;;;;;;;8.03;71.42;101335.75;4940870;28;20117;-80
2023/03/24 01:27:14;;;;;;;10.02;6.65;;;;;;;8.10;71.56;101342.44;4956845;28;20122;-80
2023/03/24 01:29:41;;;;;;;12.10;7.22;;;;;;;7.97;71.46;101323.91;4940801;28;20472;-79
2023/03/24 01:32:06;;;;;;;10.43;6.13;;;;;;;8.04;71.41;101321.97;4972858;28;20055;-80
2023/03/24 01:34:32;;;;;;;10.90;5.88;;;;;;;7.91;71.67;101300.03;4972675;28;20054;-80
2023/03/24 01:36:58;;;;;;;8.57;6.00;;;;;;;8.07;71.22;101329.66;4940386;28;20130;-80
2023/03/24 01:39:23;;;;;;;11.95;6.32;;;;;;;8.02;71.95;101321.19;4972810;28;20030;-80
2023/03/24 01:41:49;;;;;;;11.43;7.05;;;;;;;7.91;72.14;101325.78;4956335;28;20026;-80
2023/03/24 01:44:26;;;;;;;8.32;5.65;;;;;;;8.00;72.02;101325.53;4956908;28;20030;-80
2023/03/24 01:46:52;;;;;;;12.18;6.57;;;;;;;7.97;71.78;101331.63;4972286;28;20042;-79
2023/03/24 01:49:18;;;;;;;10.02;6.57;;;;;;;7.84;71.67;101319.09;4940583;28;20477;-80
2023/03/24 01:51:44;;;;;;;14.98;7.75;;;;;;;7.76;72.06;101319.28;4955829;28;20031;-80
2023/03/24 01:54:17;;;;;;;12.35;8.30;;;;;;;7.86;72.41;101330.19;4988615;28;20511;-80
2023/03/24 01:56:46;;;;;;;14.23;7.68;;;;;;;7.71;73.02;101319.44;4972450;28;20058;-79
2023/03/24 01:59:13;;;;;;;9.82;6.15;;;;;;;7.72;73.28;101328.84;4940473;28;20027;-79
2023/03/24 02:01:39;;;;;;;12.65;7.13;;;;;;;7.74;72.79;101339.94;4955763;28;20070;-80
2023/03/24 02:04:05;;;;;;;11.68;6.25;;;;;;;7.67;72.05;101319.53;4956302;28;20061;-80
2023/03/24 02:06:35;;;;;;;11.05;5.97;;;;;;;7.75;71.74;101344.22;4955923;28;20026;-80
2023/03/24 02:09:01;;;;;;;9.70;7.15;;;;;;;7.67;72.13;101353.88;4940196;28;20081;-80
2023/03/24 02:11:29;;;;;;;9.90;5.68;;;;;;;7.63;72.31;101346.25;4972094;28;20030;-80
2023/03/24 02:13:55;;;;;;;10.68;7.18;;;;;;;7.62;71.67;101342.84;4940279;28;20030;-80
2023/03/24 02:16:45;;;;;;;12.02;7.43;;;;;;;7.56;72.30;101342.97;4956066;28;20474;-80
2023/03/24 02:19:16;;;;;;;17.02;9.00;;;;;;;7.34;72.25;101345.25;4972961;28;20377;-80
2023/03/24 02:21:51;;;;;;;10.45;6.93;;;;;;;7.40;72.32;101357.13;4971976;28;20082;-80
2023/03/24 02:24:41;;;;;;;8.48;6.28;;;;;;;7.46;72.20;101359.53;4973081;28;20027;-79
2023/03/24 02:27:28;;;;;;;10.52;6.18;;;;;;;7.42;71.75;101357.94;4955636;28;20512;-79
2023/03/24 02:30:21;;;;;;;11.43;7.47;;;;;;;7.42;71.75;101365.66;4971851;28;20030;-79
2023/03/24 02:32:52;;;;;;;14.55;7.82;;;;;;;7.41;71.34;101371.69;4971526;28;20031;-80
2023/03/24 02:35:40;;;;;;;13.23;7.07;;;;;;;7.35;72.01;101369.25;4971046;28;20055;-80
2023/03/24 02:38:25;;;;;;;13.77;8.77;;;;;;;7.26;72.44;101367.75;4970957;28;20034;-79
2023/03/24 02:41:00;;;;;;;14.48;6.93;;;;;;;7.29;72.21;101375.41;4971589;28;20034;-79
2023/03/24 02:43:40;;;;;;;16.60;8.85;;;;;;;7.27;72.36;101374.56;4972779;28;20070;-80
2023/03/24 02:46:12;;;;;;;19.75;8.10;;;;;;;7.10;72.06;101359.53;4972307;28;20035;-80
2023/03/24 02:48:53;;;;;;;18.75;10.50;;;;;;;7.17;72.99;101389.38;4971442;28;20050;-80
2023/03/24 02:51:26;;;;;;;14.55;8.82;;;;;;;7.08;73.52;101399.03;4972618;28;20489;-80
2023/03/24 02:54:12;;;;;;;17.83;9.02;;;;;;;7.04;73.96;101390.53;4955399;28;20526;-79
2023/03/24 02:56:49;;;;;;;12.48;8.15;;;;;;;6.94;73.45;101381.34;4971275;28;20030;-79
2023/03/24 02:59:38;;;;;;;15.63;8.10;;;;;;;6.63;74.40;101344.31;4940604;28;20109;-79
2023/03/24 03:02:06;;;;;;;12.82;6.43;;;;;;;6.81;74.80;101374.78;4971157;28;20031;-79
2023/03/24 03:04:35;;;;;;;12.63;7.30;;;;;;;6.76;75.25;101361.16;4955279;28;20031;-80
2023/03/24 03:07:08;;;;;;;15.88;8.55;;;;;;;6.68;75.61;101352.75;4955411;28;20038;-79
2023/03/24 03:09:40;;;;;;;22.88;9.27;;;;;;;6.53;75.96;101323.94;4955995;28;20085;-80
2023/03/24 03:12:06;;;;;;;17.85;7.28;;;;;;;6.70;76.02;101372.44;4939173;28;20054;-79
2023/03/24 03:14:37;;;;;;;13.63;7.75;;;;;;;6.65;76.33;101347.69;4938305;28;20034;-79
2023/03/24 03:17:17;;;;;;;16.13;8.32;;;;;;;6.82;75.79;101361.88;4955175;28;20030;-80
2023/03/24 03:19:46;;;;;;;10.65;7.00;;;;;;;6.97;75.72;101365.81;4939837;28;20054;-80
2023/03/24 03:22:15;;;;;;;15.73;6.25;;;;;;;6.94;75.91;101344.47;4955188;28;20514;-79
2023/03/24 03:24:42;;;;;;;10.82;7.70;;;;;;;7.04;76.27;101351.09;4939042;28;20405;-79
2023/03/24 03:27:13;;;;;;;15.55;7.22;;;;;;;6.92;75.83;101313.66;4938943;28;20027;-80
2023/03/24 03:29:40;;;;;;;17.98;8.93;;;;;;;6.97;76.12;101316.94;4970621;28;20386;-79
2023/03/24 03:32:07;;;;;;;11.40;7.40;;;;;;;7.23;75.47;101347.22;4954490;28;20027;-80
2023/03/24 03:34:41;;;;;;;12.77;7.90;;;;;;;7.22;74.86;101352.41;4954823;28;20065;-79
2023/03/24 03:37:26;;;;;;;14.35;7.93;;;;;;;7.19;75.47;101356.75;4954690;28;20027;-80
2023/03/24 03:40:04;;;;;;;14.88;7.68;;;;;;;7.24;75.06;101364.38;4971682;28;20512;-79
2023/03/24 03:42:30;;;;;;;15.30;8.95;;;;;;;7.11;74.92;101334.66;4956241;28;20118;-80
2023/03/24 03:44:55;;;;;;;15.75;9.23;;;;;;;7.25;74.66;101360.06;4954612;28;20512;-80
2023/03/24 03:47:21;;;;;;;16.73;9.18;;;;;;;7.27;74.49;101359.13;4953890;28;20034;-80
2023/03/24 03:49:47;;;;;;;14.15;8.10;;;;;;;7.31;74.40;101371.06;4954755;28;20030;-80
2023/03/24 03:52:13;;;;;;;12.23;7.97;;;;;;;7.32;74.27;101361.63;4954393;28;20027;-81
2023/03/24 03:54:38;;;;;;;19.38;9.15;;;;;;;7.26;74.54;101349.72;4938559;28;20030;-81
2023/03/24 03:57:04;;;;;;;11.82;7.68;;;;;;;7.22;74.26;101339.56;4954558;28;20087;-81
2023/03/24 03:59:34;;;;;;;15.30;9.07;;;;;;;7.57;75.14;101359.28;4954247;28;20508;-81
2023/03/24 04:02:25;;;;;;;11.40;6.75;;;;;;;7.60;73.12;101366.94;4954503;28;20081;-82
2023/03/24 04:05:15;;;;;;;10.95;7.18;;;;;;;7.62;73.53;101370.31;4971380;28;20043;-82
2023/03/24 04:07:41;;;;;;;10.63;6.68;;;;;;;7.59;72.31;101371.25;4970452;28;20053;-82
2023/03/24 04:10:26;;;;;;;11.35;7.43;;;;;;;7.46;72.34;101369.84;4970366;28;20492;-82
2023/03/24 04:12:58;;;;;;;19.77;9.10;;;;;;;7.34;73.04;101370.97;4938847;28;20062;-82
2023/03/24 04:15:47;;;;;;;14.52;6.85;;;;;;;7.42;73.07;101376.81;4969934;28;20126;-82
2023/03/24 04:18:35;;;;;;;14.77;8.15;;;;;;;7.39;72.79;101370.91;4970215;28;20097;-82
2023/03/24 04:21:42;;;;;;;14.55;9.18;;;;;;;7.38;73.21;101370.06;4971397;28;20081;-82
2023/03/24 04:24:48;;;;;;;12.48;7.70;;;;;;;7.35;73.14;101384.69;4970563;28;20037;-82
2023/03/24 04:27:37;;;;;;;19.27;9.25;;;;;;;7.28;72.82;101385.75;4982268;28;20424;-80
2023/03/24 04:30:16;;;;;;;19.85;9.15;;;;;;;7.18;73.55;101385.13;4993813;28;20026;-80
2023/03/24 04:32:53;;;;;;;15.55;8.43;;;;;;;7.19;72.80;101382.50;4993012;28;20393;-80
2023/03/24 04:35:30;;;;;;;15.70;7.80;;;;;;;7.08;72.87;101384.47;4992975;28;20547;-83
2023/03/24 04:38:06;;;;;;;23.30;8.98;;;;;;;6.98;73.01;101385.56;4977810;28;20061;-80
2023/03/24 04:40:32;;;;;;;11.73;8.45;;;;;;;6.92;73.07;101385.69;4994288;28;20446;-84
2023/03/24 04:42:57;;;;;;;15.40;9.13;;;;;;;6.89;72.91;101390.91;4977193;28;20043;-84
2023/03/24 04:45:26;;;;;;;14.20;8.13;;;;;;;6.93;72.91;101389.09;4976323;28;20532;-84
2023/03/24 04:47:53;;;;;;;12.75;9.13;;;;;;;6.55;73.22;101347.88;4977212;28;20038;-84
2023/03/24 04:50:35;;;;;;;14.35;7.45;;;;;;;6.82;73.12;101408.19;4976446;28;20027;-84
2023/03/24 04:53:00;;;;;;;20.70;10.43;;;;;;;6.57;73.45;101392.38;4977329;28;20413;-83
2023/03/24 04:55:49;;;;;;;15.00;8.35;;;;;;;6.63;73.90;101413.72;4992891;28;20038;-83
2023/03/24 04:58:19;;;;;;;15.40;10.05;;;;;;;6.49;73.96;101399.44;4992208;28;20122;-83
2023/03/24 05:00:45;;;;;;;15.55;9.32;;;;;;;6.63;73.78;101411.16;4976464;28;20030;-81
2023/03/24 05:03:13;;;;;;;16.80;10.85;;;;;;;6.58;74.56;101414.66;4992118;28;20026;-80
2023/03/24 05:05:40;;;;;;;14.45;9.45;;;;;;;6.56;74.46;101411.25;4959889;28;20412;-80
2023/03/24 05:08:07;;;;;;;17.42;10.73;;;;;;;6.52;74.49;101401.94;4985919;28;21124;-81
2023/03/24 05:10:32;;;;;;;16.65;9.07;;;;;;;6.60;74.54;101407.78;4992765;28;20101;-83
2023/03/24 05:12:58;;;;;;;21.77;9.45;;;;;;;6.65;74.44;101407.66;4975587;28;20585;-81
2023/03/24 05:15:23;;;;;;;19.33;9.68;;;;;;;6.71;74.01;101404.97;4993808;28;20042;-80
2023/03/24 05:17:50;;;;;;;23.92;10.98;;;;;;;6.68;74.65;101414.47;4991650;28;20030;-83
2023/03/24 05:20:16;;;;;;;18.40;10.57;;;;;;;6.58;74.58;101391.50;4984999;28;20516;-85
2023/03/24 05:22:41;;;;;;;12.00;9.18;;;;;;;6.84;74.53;101421.00;4986147;28;20031;-82
2023/03/24 05:25:07;;;;;;;20.33;11.52;;;;;;;6.83;74.71;101409.03;4991730;28;20034;-82
2023/03/24 05:27:32;;;;;;;12.93;9.55;;;;;;;6.93;74.76;101410.53;4992669;28;20451;-83
2023/03/24 05:29:58;;;;;;;17.50;10.32;;;;;;;7.04;74.79;101415.44;4975615;28;20041;-84
2023/03/24 05:32:23;;;;;;;24.60;13.65;;;;;;;7.10;74.86;101408.44;4975796;28;20030;-81
2023/03/24 05:34:49;;;;;;;20.40;13.85;;;;;;;7.26;75.27;101408.91;4991802;28;20547;-81
2023/03/24 05:37:16;;;;;;;25.15;11.32;;;;;;;7.29;75.98;101387.44;4987816;28;20027;-84
2023/03/24 05:39:42;;;;;;;18.38;13.18;;;;;;;7.55;76.22;101405.66;4988606;28;20027;-85
2023/03/24 05:42:07;;;;;;;18.30;9.90;;;;;;;7.66;76.21;101419.13;4972652;28;20027;-85
2023/03/24 05:44:33;;;;;;;18.98;12.63;;;;;;;7.58;76.76;101379.03;4996147;28;20034;-87
2023/03/24 05:46:58;;;;;;;38.65;18.02;;;;;;;7.91;76.32;101413.38;4991605;28;20034;-85
2023/03/24 05:49:24;;;;;;;26.45;15.32;;;;;;;8.01;76.25;101418.25;4991605;28;20033;-84
2023/03/24 05:51:49;;;;;;;21.27;12.00;;;;;;;8.14;76.24;101428.25;4976195;28;21361;-85
2023/03/24 05:54:15;;;;;;;35.20;24.00;;;;;;;8.21;75.38;101430.63;5006963;28;20130;-85
2023/03/24 05:56:40;;;;;;;22.25;12.32;;;;;;;8.23;75.20;101415.97;4974383;28;20030;-85
2023/03/24 05:59:06;;;;;;;18.23;10.52;;;;;;;8.23;75.14;101409.97;4981195;28;20049;-85
2023/03/24 06:01:31;;;;;;;25.90;9.35;;;;;;;8.43;74.97;101423.19;4985084;28;20499;-86
2023/03/24 06:03:57;;;;;;;16.73;10.75;;;;;;;8.52;74.77;101422.94;4985497;28;20054;-86
2023/03/24 06:06:22;;;;;;;16.08;10.75;;;;;;;8.60;74.51;101426.16;4994803;28;20034;-86
2023/03/24 06:08:48;;;;;;;22.23;12.55;;;;;;;8.64;74.06;101416.59;4974717;28;20416;-92
2023/03/24 06:11:14;;;;;;;15.50;10.07;;;;;;;8.68;73.59;101417.38;4976303;28;20034;-86
2023/03/24 06:13:39;;;;;;;19.58;10.65;;;;;;;8.74;73.79;101430.91;4975416;28;20034;-85
2023/03/24 06:16:05;;;;;;;20.00;9.85;;;;;;;8.70;73.90;101406.09;4984313;28;20027;-83
2023/03/24 06:18:32;;;;;;;19.10;9.88;;;;;;;8.91;73.41;101426.13;4987324;28;20484;-82
2023/03/24 06:20:58;;;;;;;24.52;12.05;;;;;;;9.06;71.98;101439.47;4974833;28;20053;-83
2023/03/24 06:23:24;;;;;;;17.92;10.23;;;;;;;9.06;70.87;101435.16;4990710;28;20555;-90
2023/03/24 06:25:53;;;;;;;23.80;12.32;;;;;;;8.97;71.39;101429.44;4973249;28;20038;-84
2023/03/24 06:28:19;;;;;;;27.55;13.70;;;;;;;8.73;71.39;101406.00;4975454;28;20030;-85
2023/03/24 06:30:45;;;;;;;19.50;11.25;;;;;;;9.15;71.28;101439.22;5001689;28;20049;-84
2023/03/24 06:33:12;;;;;;;22.75;11.88;;;;;;;9.02;71.18;101407.75;4984231;28;20049;-84
2023/03/24 06:35:38;;;;;;;22.17;13.13;;;;;;;9.26;71.83;101426.81;4982188;28;20092;-81
2023/03/24 06:38:04;;;;;;;18.23;11.45;;;;;;;9.36;70.49;101432.53;4981101;28;20042;-81
2023/03/24 06:40:30;;;;;;;28.38;11.82;;;;;;;9.36;70.05;101412.72;4996319;28;20419;-80
2023/03/24 06:42:55;;;;;;;25.25;15.80;;;;;;;9.60;70.21;101430.91;4986332;28;20120;-86
2023/03/24 06:45:20;;;;;;;28.88;14.98;;;;;;;9.61;70.24;101423.13;4966143;28;20027;-84
2023/03/24 06:47:46;;;;;;;21.83;12.15;;;;;;;9.85;69.79;101429.25;4968942;28;20080;-80
2023/03/24 06:50:12;;;;;;;26.13;14.07;;;;;;;9.89;69.37;101410.13;4992523;28;20041;-78
2023/03/24 06:52:37;;;;;;;23.98;14.05;;;;;;;10.13;68.89;101415.34;4975775;28;20137;-86
2023/03/24 06:55:03;;;;;;;31.15;13.48;;;;;;;10.34;68.25;101435.34;4978799;28;20026;-85
2023/03/24 06:57:28;;;;;;;26.95;12.32;;;;;;;10.46;68.47;101428.91;5005216;28;20053;-81
2023/03/24 06:59:54;;;;;;;27.65;13.40;;;;;;;10.53;68.23;101430.38;4969717;28;20026;-84
2023/03/24 07:02:20;;;;;;;24.20;11.63;;;;;;;10.62;68.22;101420.53;4983666;28;20030;-83
2023/03/24 07:04:45;;;;;;;18.13;11.23;;;;;;;10.80;67.94;101423.34;4984429;28;20161;-87
2023/03/24 07:07:11;;;;;;;33.95;14.63;;;;;;;10.86;67.76;101417.94;4981673;28;20547;-82
2023/03/24 07:09:37;;;;;;;26.40;13.45;;;;;;;10.94;67.26;101420.25;5012028;28;20030;-82
2023/03/24 07:12:04;;;;;;;24.35;13.25;;;;;;;11.06;67.28;101417.19;4984489;28;20061;-91
2023/03/24 07:14:30;;;;;;;29.20;14.50;;;;;;;11.16;66.76;101421.09;5002621;28;20484;-82
2023/03/24 07:16:55;;;;;;;34.00;13.85;;;;;;;11.26;66.41;101417.25;4992335;28;20041;-82
2023/03/24 07:19:21;;;;;;;30.52;15.32;;;;;;;11.40;65.92;101425.31;4995273;28;20027;-80
2023/03/24 07:21:48;;;;;;;28.85;13.52;;;;;;;11.41;65.89;101416.66;4971099;28;20036;-82
2023/03/24 07:24:15;;;;;;;30.67;15.80;;;;;;;11.40;66.34;101408.94;5008562;28;20034;-83
2023/03/24 07:26:41;;;;;;;29.13;15.57;;;;;;;11.59;66.03;101430.59;5009808;28;20029;-85
2023/03/24 07:29:07;;;;;;;28.45;13.90;;;;;;;11.69;66.48;101425.91;4976412;28;20023;-81
2023/03/24 07:31:37;;;;;;;27.55;13.75;;;;;;;11.69;65.52;101413.78;4997363;28;20034;-81
2023/03/24 07:34:06;;;;;;;31.80;15.27;;;;;;;11.90;65.51;101426.81;4975411;28;20040;-86
2023/03/24 07:36:31;;;;;;;27.80;13.98;;;;;;;11.85;66.19;101436.53;4995311;28;20053;-81
2023/03/24 07:38:57;;;;;;;26.58;13.95;;;;;;;12.03;65.54;101433.16;4997319;28;20031;-85
2023/03/24 07:41:23;;;;;;;25.73;13.00;;;;;;;12.14;64.92;101425.78;4993498;28;20648;-83
2023/03/24 07:43:49;;;;;;;33.83;14.70;;;;;;;12.14;64.99;101388.63;4983657;28;20420;-82
2023/03/24 07:46:15;;;;;;;31.42;14.85;;;;;;;12.59;64.01;101428.13;4980862;28;20488;-84
2023/03/24 07:48:41;;;;;;;30.02;14.48;;;;;;;12.58;64.42;101413.44;4961234;28;20045;-92
2023/03/24 07:51:06;;;;;;;41.72;14.80;;;;;;;12.78;63.67;101429.88;4981506;28;20093;-83
2023/03/24 07:53:32;;;;;;;22.80;12.80;;;;;;;12.90;63.45;101432.78;4966044;28;20046;-87
2023/03/24 07:55:58;;;;;;;29.88;15.45;;;;;;;12.91;63.14;101405.88;4978071;28;20030;-83
2023/03/24 07:58:24;;;;;;;32.40;14.93;;;;;;;13.01;62.93;101402.88;4998012;28;20049;-85
2023/03/24 08:00:49;;;;;;;28.88;15.02;;;;;;;13.18;62.55;101418.50;5011658;28;20029;-85
2023/03/24 08:03:15;;;;;;;34.22;15.43;;;;;;;13.26;62.38;101416.41;5008670;28;20503;-88
2023/03/24 08:05:41;;;;;;;34.92;15.15;;;;;;;13.33;62.31;101419.56;4989279;28;20479;-83
2023/03/24 08:08:06;;;;;;;36.03;15.77;;;;;;;13.27;62.45;101405.09;5010028;28;20537;-81
2023/03/24 08:10:31;;;;;;;30.42;15.98;;;;;;;13.38;62.69;101402.84;5003931;28;20038;-82
2023/03/24 08:12:57;;;;;;;41.42;16.30;;;;;;;13.41;62.07;101394.88;4959829;28;20039;-85
2023/03/24 08:15:23;;;;;;;36.28;15.75;;;;;;;13.56;62.41;101405.44;4989875;28;20145;-82
2023/03/24 08:17:49;;;;;;;41.10;18.23;;;;;;;13.65;62.02;101402.41;4968746;28;20034;-87
2023/03/24 08:20:15;;;;;;;30.30;14.27;;;;;;;13.79;62.09;101397.38;4955492;28;20368;-87
2023/03/24 08:22:41;;;;;;;39.60;17.38;;;;;;;13.81;62.01;101387.72;4991988;28;20022;-88
2023/03/24 08:25:11;;;;;;;37.78;14.23;;;;;;;13.93;61.49;101392.28;5020765;28;20044;-85
2023/03/24 08:27:37;;;;;;;32.60;14.63;;;;;;;14.97;61.05;101379.00;5005746;28;20035;-82
2023/03/24 08:30:07;;;;;;;36.53;17.02;;;;;;;15.97;57.36;101389.81;4963698;28;20026;-91
2023/03/24 08:32:33;;;;;;;29.48;13.35;;;;;;;16.22;56.29;101395.28;4982646;28;20081;-90
2023/03/24 08:34:58;;;;;;;29.80;15.43;;;;;;;16.52;54.69;101396.94;4992148;28;20089;-90
2023/03/24 08:37:24;;;;;;;33.55;16.50;;;;;;;16.42;53.01;101364.47;5023889;28;20034;-91
2023/03/24 08:39:50;;;;;;;30.83;14.35;;;;;;;16.74;53.26;101386.88;5013013;28;20037;-90
2023/03/24 08:42:15;;;;;;;45.20;16.63;;;;;;;16.64;52.96;101381.34;4996467;28;20045;-94
2023/03/24 08:44:41;;;;;;;28.92;15.43;;;;;;;16.66;54.04;101383.84;4994188;28;21473;-83
2023/03/24 08:47:06;;;;;;;34.90;16.13;;;;;;;16.82;53.60;101376.78;4988694;28;20038;-82
2023/03/24 08:49:32;;;;;;;38.13;17.05;;;;;;;17.00;52.52;101381.75;4987024;28;20413;-83
2023/03/24 08:51:57;;;;;;;27.30;14.48;;;;;;;16.98;52.95;101374.00;4982744;28;20052;-86
2023/03/24 08:54:24;;;;;;;29.30;14.02;;;;;;;16.74;52.66;101367.75;5005865;28;20037;-92
2023/03/24 08:56:50;;;;;;;36.95;16.17;;;;;;;16.44;53.91;101373.06;4972400;28;20034;-89
2023/03/24 08:59:16;;;;;;;39.30;16.08;;;;;;;16.26;54.60;101365.41;4969834;28;20040;-89
2023/03/24 09:01:41;;;;;;;36.67;14.95;;;;;;;16.21;54.57;101359.63;4987016;28;20038;-82
2023/03/24 09:04:07;;;;;;;32.58;15.23;;;;;;;16.11;55.12;101366.34;4976722;28;20482;-85
2023/03/24 09:06:33;;;;;;;35.42;15.13;;;;;;;15.96;55.46;101356.84;4984624;28;20499;-90
2023/03/24 09:08:58;;;;;;;27.02;14.50;;;;;;;15.69;56.21;101323.63;4983317;28;20026;-85
2023/03/24 09:11:24;;;;;;;28.15;14.82;;;;;;;15.94;55.58;101353.47;5000498;28;20041;-85
2023/03/24 09:13:49;;;;;;;25.50;11.57;;;;;;;15.93;53.09;101336.16;4968363;28;20054;-83
2023/03/24 09:16:15;;;;;;;19.05;9.27;;;;;;;15.88;52.18;101325.97;4992315;28;20484;-85
2023/03/24 09:18:41;;;;;;;22.10;12.45;;;;;;;16.09;52.73;101346.50;5001282;28;20037;-84
2023/03/24 09:21:06;;;;;;;22.88;12.45;;;;;;;16.19;52.83;101335.38;5003722;28;20039;-84
2023/03/24 09:23:32;;;;;;;20.67;11.27;;;;;;;16.35;52.91;101348.34;4993108;28;20488;-85
2023/03/24 09:25:58;;;;;;;22.50;8.98;;;;;;;16.31;52.05;101342.47;4979061;28;20053;-84
2023/03/24 09:28:23;;;;;;;20.55;11.30;;;;;;;16.43;52.25;101350.50;4999305;28;20030;-84
2023/03/24 09:30:49;;;;;;;25.05;12.48;;;;;;;16.48;52.60;101348.44;5000288;28;20092;-83
2023/03/24 09:33:14;;;;;;;29.73;14.32;;;;;;;16.39;51.81;101313.28;5006624;28;20137;-83
2023/03/24 09:35:40;;;;;;;23.27;11.65;;;;;;;16.51;52.79;101311.66;4988828;28;20081;-83
2023/03/24 09:38:06;;;;;;;28.77;11.45;;;;;;;16.89;51.62;101343.22;4990087;28;20049;-92
2023/03/24 09:40:35;;;;;;;29.58;14.23;;;;;;;16.82;51.91;101306.22;4987866;28;20519;-87
2023/03/24 09:43:03;;;;;;;30.88;13.50;;;;;;;17.05;51.25;101322.19;4949620;28;20033;-82
2023/03/24 09:45:29;;;;;;;27.92;13.02;;;;;;;17.02;51.42;101317.16;4981966;28;20030;-82
2023/03/24 09:47:56;;;;;;;31.70;12.07;;;;;;;17.04;51.35;101328.34;4981036;28;20175;-85
2023/03/24 09:50:24;;;;;;;21.63;11.05;;;;;;;17.16;51.13;101324.94;4980753;28;21220;-84
2023/03/24 09:52:55;;;;;;;25.75;11.65;;;;;;;17.16;50.59;101310.09;4944396;28;20096;-85
2023/03/24 09:55:26;;;;;;;24.42;12.02;;;;;;;17.36;51.21;101315.78;4964546;28;20113;-88
2023/03/24 09:57:52;;;;;;;26.52;13.90;;;;;;;17.58;51.07;101315.19;4967460;28;20080;-88
2023/03/24 10:00:21;;;;;;;22.25;10.45;;;;;;;17.61;49.57;101315.81;4981493;28;20034;-86
2023/03/24 10:02:47;;;;;;;18.85;10.23;;;;;;;17.57;49.00;101298.63;4990758;28;20060;-85
2023/03/24 10:05:21;;;;;;;27.02;12.55;;;;;;;17.92;49.57;101322.47;4988055;28;20026;-91
2023/03/24 10:07:50;;;;;;;20.38;10.35;;;;;;;17.90;48.98;101316.50;4979995;28;20068;-86
2023/03/24 10:11:00;;;;;;;21.05;11.02;;;;;;;18.02;48.51;101317.44;4996479;28;20065;-85
2023/03/24 10:13:50;;;;;;;24.92;11.82;;;;;;;18.18;48.70;101325.03;4975892;28;20039;-84
2023/03/24 10:16:49;;;;;;;22.13;10.63;;;;;;;18.28;48.39;101318.22;4994030;28;20038;-83
2023/03/24 10:19:42;;;;;;;19.85;10.57;;;;;;;18.37;48.46;101314.94;4978092;28;20565;-84
2023/03/24 10:22:50;;;;;;;22.52;10.88;;;;;;;18.50;47.35;101314.94;4987242;28;20034;-82
2023/03/24 10:25:21;;;;;;;21.52;9.95;;;;;;;18.51;46.64;101301.72;4988894;28;20125;-85
2023/03/24 10:27:48;;;;;;;22.27;9.93;;;;;;;18.46;47.61;101301.19;4975541;28;20030;-91
2023/03/24 10:30:19;;;;;;;23.92;10.35;;;;;;;18.59;47.12;101303.78;4997113;28;20038;-81
2023/03/24 10:32:45;;;;;;;20.08;9.32;;;;;;;18.78;46.06;101287.59;4993397;28;20022;-85
2023/03/24 10:35:30;;;;;;;21.40;8.98;;;;;;;18.90;45.63;101291.97;4993765;28;20058;-82
2023/03/24 10:37:57;;;;;;;20.45;9.50;;;;;;;18.90;46.12;101276.22;4994770;28;20029;-85
2023/03/24 10:40:28;;;;;;;22.10;10.75;;;;;;;18.86;46.04;101280.84;4993146;28;20037;-80
2023/03/24 10:42:54;;;;;;;19.02;10.32;;;;;;;18.99;46.12;101275.53;4993165;28;20053;-83
2023/03/24 10:45:31;;;;;;;21.42;10.10;;;;;;;18.95;45.60;101281.13;4976830;28;20120;-82
2023/03/24 10:47:58;;;;;;;22.20;10.25;;;;;;;19.03;46.31;101282.22;4977758;28;20427;-82
2023/03/24 10:50:25;;;;;;;16.67;8.60;;;;;;;19.01;46.21;101263.16;4979031;28;20109;-83
2023/03/24 10:52:52;;;;;;;20.98;10.30;;;;;;;19.15;45.83;101267.34;4963011;28;20137;-86
2023/03/24 10:55:19;;;;;;;19.42;8.93;;;;;;;19.17;45.53;101265.44;4990464;28;20403;-83
2023/03/24 10:57:46;;;;;;;19.05;9.20;;;;;;;19.14;45.57;101253.41;4986193;28;20029;-82
2023/03/24 11:00:19;;;;;;;12.48;7.43;;;;;;;19.36;44.85;101267.53;5002945;28;20037;-82
2023/03/24 11:02:51;;;;;;;18.25;9.63;;;;;;;19.38;43.57;101261.25;5007523;28;20072;-82
2023/03/24 11:05:21;;;;;;;17.40;8.35;;;;;;;19.35;44.15;101260.63;4987296;28;20022;-86
2023/03/24 11:07:48;;;;;;;21.13;9.00;;;;;;;19.49;44.05;101257.78;4991294;28;20029;-86
2023/03/24 11:10:20;;;;;;;17.95;8.13;;;;;;;19.55;44.02;101246.81;4979627;28;20419;-83
2023/03/24 11:12:56;;;;;;;13.77;7.45;;;;;;;19.88;42.50;101243.41;4992650;28;20554;-82
2023/03/24 11:15:28;;;;;;;13.30;5.47;;;;;;;20.02;40.25;101235.28;5007708;28;20032;-84
2023/03/24 11:18:05;;;;;;;9.93;5.60;;;;;;;20.09;39.11;101227.75;5007469;28;20030;-84
2023/03/24 11:20:32;;;;;;;12.77;5.97;;;;;;;20.18;39.48;101224.41;4983999;28;20018;-82
2023/03/24 11:23:01;;;;;;;12.32;5.95;;;;;;;20.31;40.37;101211.94;5001863;28;20030;-85
2023/03/24 11:25:40;;;;;;;15.82;7.15;;;;;;;20.25;40.38;101209.78;5009024;28;20674;-82
2023/03/24 11:28:10;;;;;;;10.45;6.07;;;;;;;20.40;40.19;101197.22;5009291;28;20507;-83
2023/03/24 11:30:48;;;;;;;11.23;6.07;;;;;;;20.46;39.92;101204.66;5008680;28;20109;-86